Time;durP1;ratioP1;P1;durP2;ratioP2;P2;SDS_P1;SDS_P2;PMS_P1;PMS_P2;Temp;Humidity;BMP_temperature;BMP_pressure;BME280_temperature;BME280_humidity;BME280_pressure;Samples;Min_cycle;Max_cycle;Signal;HPM_P1;HPM_P2
2023/10/18 00:01:00;;;;;;;4.95;3.00;;;20.10;52.50;;;;;;5042915;28;20034;-66
2023/10/18 00:03:29;;;;;;;3.70;2.70;;;20.10;52.50;;;;;;5042780;28;20029;-66
2023/10/18 00:05:59;;;;;;;;;;;20.00;52.50;;;;;;5042370;28;20033;-66
2023/10/18 00:08:25;;;;;;;3.70;2.85;;;20.10;52.50;;;;;;5040245;28;19908;-66
2023/10/18 00:10:53;;;;;;;3.97;3.00;;;20.00;52.50;;;;;;5041535;28;20032;-67
2023/10/18 00:13:22;;;;;;;4.45;3.30;;;20.00;52.50;;;;;;5041679;28;20129;-66
2023/10/18 00:15:53;;;;;;;4.38;2.85;;;20.10;52.60;;;;;;5040456;28;20179;-67
2023/10/18 00:18:20;;;;;;;3.97;2.70;;;20.00;52.50;;;;;;5039028;28;20036;-66
2023/10/18 00:20:46;;;;;;;4.15;3.13;;;20.00;52.60;;;;;;5042730;28;20087;-65
2023/10/18 00:23:11;;;;;;;4.53;2.63;;;20.00;52.60;;;;;;5039180;28;20029;-66
2023/10/18 00:25:37;;;;;;;3.67;2.72;;;20.00;52.60;;;;;;5041133;28;20033;-66
2023/10/18 00:28:03;;;;;;;3.75;2.70;;;20.00;52.60;;;;;;5040969;28;20056;-65
2023/10/18 00:30:30;;;;;;;3.67;2.50;;;20.00;52.60;;;;;;5040263;28;20022;-63
2023/10/18 00:32:56;;;;;;;3.90;2.70;;;19.90;52.60;;;;;;5042995;28;20028;-64
2023/10/18 00:35:24;;;;;;;3.92;2.90;;;20.00;52.60;;;;;;5039755;28;20029;-63
2023/10/18 00:37:56;;;;;;;4.05;2.88;;;19.90;52.60;;;;;;5041562;28;20032;-66
2023/10/18 00:42:53;;;;;;;4.32;2.80;;;19.90;52.60;;;;;;5038950;28;20025;-65
2023/10/18 00:45:21;;;;;;;3.75;2.60;;;19.90;52.60;;;;;;5042150;28;20516;-66
2023/10/18 00:47:48;;;;;;;3.83;2.67;;;19.90;52.60;;;;;;5042168;28;20041;-66
2023/10/18 00:50:15;;;;;;;3.63;2.65;;;19.90;52.60;;;;;;5039823;28;20021;-66
2023/10/18 00:52:41;;;;;;;3.85;2.78;;;19.80;52.60;;;;;;5040892;28;20041;-67
2023/10/18 00:55:09;;;;;;;4.07;3.10;;;19.90;52.70;;;;;;5041797;28;20029;-67
2023/10/18 00:57:36;;;;;;;4.10;2.67;;;19.80;52.60;;;;;;5040903;28;20392;-63
2023/10/18 01:00:09;;;;;;;3.80;2.70;;;19.90;52.70;;;;;;5039586;28;20521;-65
2023/10/18 01:02:39;;;;;;;3.55;2.50;;;19.80;52.70;;;;;;5040663;28;20013;-64
2023/10/18 01:05:10;;;;;;;4.15;2.80;;;19.80;52.70;;;;;;5040405;28;20080;-64
2023/10/18 01:07:36;;;;;;;3.30;2.47;;;19.80;52.70;;;;;;5040761;28;20159;-65
2023/10/18 01:10:07;;;;;;;3.55;2.55;;;19.80;52.70;;;;;;5039380;28;20104;-65
2023/10/18 01:12:34;;;;;;;4.28;2.78;;;19.80;52.70;;;;;;5036230;28;20053;-64
2023/10/18 01:15:00;;;;;;;3.95;2.80;;;19.80;52.70;;;;;;5040031;28;20022;-64
2023/10/18 01:17:26;;;;;;;3.13;2.20;;;19.80;52.70;;;;;;5040449;28;20038;-64
2023/10/18 01:19:53;;;;;;;4.25;2.47;;;19.80;52.70;;;;;;5039426;28;20032;-63
2023/10/18 01:22:19;;;;;;;3.55;2.42;;;19.70;52.70;;;;;;5041094;28;20021;-63
2023/10/18 01:24:46;;;;;;;3.35;2.22;;;19.70;52.70;;;;;;5039784;28;20021;-64
2023/10/18 01:27:12;;;;;;;3.50;2.30;;;19.70;52.70;;;;;;5039646;28;20112;-64
2023/10/18 01:29:38;;;;;;;5.72;2.45;;;19.70;52.80;;;;;;5038937;28;20035;-63
2023/10/18 01:32:04;;;;;;;3.85;2.45;;;19.70;52.80;;;;;;5038582;28;20017;-63
2023/10/18 01:34:31;;;;;;;3.42;2.47;;;19.70;52.80;;;;;;5040564;28;20044;-64
2023/10/18 01:36:58;;;;;;;3.38;2.40;;;19.70;52.80;;;;;;5038805;28;20603;-66
2023/10/18 01:39:28;;;;;;;3.33;2.33;;;19.70;52.80;;;;;;5039830;28;20025;-67
2023/10/18 01:41:55;;;;;;;3.13;2.30;;;19.70;52.80;;;;;;5039482;28;20477;-66
2023/10/18 01:44:31;;;;;;;2.92;2.03;;;19.70;52.80;;;;;;5040080;28;20033;-67
2023/10/18 01:47:06;;;;;;;3.72;2.35;;;19.60;52.80;;;;;;5038565;28;20108;-67
2023/10/18 01:49:32;;;;;;;3.45;2.40;;;19.60;52.80;;;;;;5041501;28;20037;-66
2023/10/18 01:51:59;;;;;;;3.67;2.35;;;19.60;52.80;;;;;;5039161;28;20029;-66
2023/10/18 01:54:27;;;;;;;3.00;2.33;;;19.60;52.80;;;;;;5040097;28;20040;-66
2023/10/18 01:56:57;;;;;;;3.70;2.50;;;19.60;52.90;;;;;;5039446;28;20056;-66
2023/10/18 01:59:27;;;;;;;3.38;2.30;;;19.60;52.90;;;;;;5040065;28;20025;-66
2023/10/18 02:01:53;;;;;;;;;;;19.60;52.90;;;;;;5038723;28;20029;-65
2023/10/18 02:04:25;;;;;;;3.15;2.20;;;19.60;52.90;;;;;;5037580;28;19909;-65
2023/10/18 02:06:52;;;;;;;3.17;2.30;;;19.60;52.90;;;;;;5037979;28;20033;-65
2023/10/18 02:09:19;;;;;;;3.58;2.22;;;19.60;52.90;;;;;;5055142;28;20029;-66
2023/10/18 02:11:45;;;;;;;3.58;2.30;;;19.60;53.00;;;;;;5039247;28;20120;-65
2023/10/18 02:14:13;;;;;;;3.33;2.38;;;19.60;53.00;;;;;;5036962;28;20500;-66
2023/10/18 02:16:40;;;;;;;3.20;2.17;;;19.60;53.10;;;;;;5036410;28;20022;-67
2023/10/18 02:19:07;;;;;;;3.10;2.10;;;19.50;53.00;;;;;;5038364;28;20381;-66
2023/10/18 02:21:36;;;;;;;3.80;2.30;;;19.50;53.00;;;;;;5038798;28;20023;-65
2023/10/18 02:24:02;;;;;;;2.80;2.00;;;19.50;53.10;;;;;;5040174;28;20108;-66
2023/10/18 02:26:30;;;;;;;3.10;2.15;;;19.50;53.10;;;;;;5037381;28;20120;-66
2023/10/18 02:29:05;;;;;;;3.15;2.13;;;19.50;53.10;;;;;;5038121;28;20445;-67
2023/10/18 02:31:32;;;;;;;2.70;1.92;;;19.50;53.10;;;;;;5045231;28;20033;-67
2023/10/18 02:34:00;;;;;;;3.28;2.08;;;19.50;53.20;;;;;;5039551;28;20025;-67
2023/10/18 02:36:38;;;;;;;2.90;1.95;;;19.50;53.20;;;;;;5037990;28;20044;-67
2023/10/18 02:39:06;;;;;;;2.40;1.70;;;19.50;53.20;;;;;;5038754;28;20025;-67
2023/10/18 02:41:34;;;;;;;3.15;2.13;;;19.50;53.20;;;;;;5072440;28;20475;-67
2023/10/18 02:44:00;;;;;;;2.70;1.92;;;19.50;53.30;;;;;;5037913;28;20128;-66
2023/10/18 02:46:31;;;;;;;2.90;1.90;;;19.50;53.30;;;;;;5040683;28;20113;-67
2023/10/18 02:49:00;;;;;;;3.40;2.00;;;19.40;53.30;;;;;;5039207;28;20492;-63
2023/10/18 02:51:28;;;;;;;2.75;1.85;;;19.40;53.30;;;;;;5038660;28;20040;-63
2023/10/18 02:54:07;;;;;;;2.30;1.70;;;19.40;53.30;;;;;;5039074;28;20048;-62
2023/10/18 02:56:37;;;;;;;;;;;19.40;53.40;;;;;;5041755;28;20040;-62
2023/10/18 02:59:09;;;;;;;3.15;1.90;;;19.40;53.40;;;;;;5037335;28;19915;-68
2023/10/18 03:01:40;;;;;;;3.45;2.00;;;19.40;53.40;;;;;;5036161;28;20503;-69
2023/10/18 03:04:11;;;;;;;3.20;1.90;;;19.40;53.40;;;;;;5039006;28;20053;-69
2023/10/18 03:06:37;;;;;;;3.05;1.80;;;19.40;54.00;;;;;;5037305;28;20041;-70
2023/10/18 03:09:05;;;;;;;2.40;1.60;;;19.40;53.50;;;;;;5039032;28;20475;-68
2023/10/18 03:11:32;;;;;;;2.90;1.92;;;19.40;53.50;;;;;;5037749;28;20365;-69
2023/10/18 03:13:58;;;;;;;3.17;1.98;;;19.40;53.50;;;;;;5037969;28;20469;-69
2023/10/18 03:16:28;;;;;;;2.40;1.67;;;19.40;53.60;;;;;;5037707;28;20115;-70
2023/10/18 03:18:54;;;;;;;3.38;2.13;;;19.40;53.60;;;;;;5037900;28;20045;-67
2023/10/18 03:21:23;;;;;;;2.88;2.05;;;19.40;53.60;;;;;;5036913;28;20060;-67
2023/10/18 03:23:52;;;;;;;2.45;1.83;;;19.40;53.60;;;;;;5037629;28;20026;-66
2023/10/18 03:26:37;;;;;;;2.80;1.90;;;19.40;53.60;;;;;;5035233;28;20504;-66
2023/10/18 03:29:11;;;;;;;2.83;1.90;;;19.40;53.60;;;;;;5036172;28;20029;-67
2023/10/18 03:31:41;;;;;;;2.40;1.60;;;19.40;53.70;;;;;;5038295;28;20500;-67
2023/10/18 03:34:41;;;;;;;2.53;1.60;;;19.40;53.70;;;;;;5037490;28;20037;-66
2023/10/18 03:36:59;;;;;;;3.03;1.92;;;19.40;53.60;;;;;;5040422;28;20033;-66
2023/10/18 03:39:25;;;;;;;2.75;1.65;;;19.40;53.70;;;;;;5038805;28;20044;-66
2023/10/18 03:41:51;;;;;;;2.72;1.50;;;19.40;53.70;;;;;;5036900;28;20112;-66
2023/10/18 03:44:32;;;;;;;2.85;1.70;;;19.30;53.70;;;;;;5038019;28;20664;-66
2023/10/18 03:47:04;;;;;;;3.22;1.90;;;19.40;53.70;;;;;;5038050;28;20500;-66
2023/10/18 03:51:57;;;;;;;2.60;1.80;;;19.40;53.70;;;;;;5037185;28;20029;-66
2023/10/18 03:54:26;;;;;;;2.40;1.60;;;19.40;53.80;;;;;;5037316;28;20045;-66
2023/10/18 03:56:52;;;;;;;2.67;1.80;;;19.30;53.70;;;;;;5036770;28;20420;-67
2023/10/18 03:59:21;;;;;;;2.90;1.80;;;19.30;53.70;;;;;;5035641;28;20263;-66
2023/10/18 04:02:15;;;;;;;2.50;1.70;;;19.30;53.80;;;;;;5037593;28;20732;-67
2023/10/18 04:04:44;;;;;;;2.88;1.70;;;19.40;53.80;;;;;;5039572;28;20503;-66
2023/10/18 04:07:16;;;;;;;2.80;1.80;;;19.30;53.70;;;;;;5037482;28;20547;-67
2023/10/18 04:10:26;;;;;;;2.33;1.60;;;19.30;53.80;;;;;;5036748;28;20469;-66
2023/10/18 04:12:33;;;;;;;2.25;1.50;;;19.30;53.80;;;;;;5036126;28;20074;-66
2023/10/18 04:14:59;;;;;;;2.20;1.52;;;19.30;53.80;;;;;;5035864;28;20056;-66
2023/10/18 04:17:36;;;;;;;2.20;1.50;;;19.30;53.80;;;;;;5037296;28;20061;-66
2023/10/18 04:20:22;;;;;;;2.53;1.65;;;19.30;53.80;;;;;;5038542;28;20025;-65
2023/10/18 04:22:51;;;;;;;1.60;1.25;;;19.30;53.90;;;;;;5036995;28;20567;-66
2023/10/18 04:25:27;;;;;;;2.55;1.60;;;19.30;53.90;;;;;;5034658;28;20126;-66
2023/10/18 04:27:57;;;;;;;2.53;1.45;;;19.30;53.90;;;;;;5037659;28;20052;-66
2023/10/18 04:30:24;;;;;;;2.50;1.80;;;19.30;53.90;;;;;;5038355;28;20033;-66
2023/10/18 04:32:59;;;;;;;2.60;1.60;;;19.30;54.20;;;;;;5043694;28;20045;-66
2023/10/18 04:35:26;;;;;;;2.50;1.50;;;19.30;53.90;;;;;;5040893;28;20512;-66
2023/10/18 04:37:58;;;;;;;2.38;1.58;;;19.30;53.90;;;;;;5039691;28;20025;-66
2023/10/18 04:40:26;;;;;;;2.20;1.50;;;19.30;53.90;;;;;;5041435;28;20440;-66
2023/10/18 04:42:56;;;;;;;2.70;1.60;;;19.30;54.00;;;;;;5041096;28;20591;-66
2023/10/18 04:45:23;;;;;;;3.00;1.90;;;19.30;54.00;;;;;;5040214;28;20496;-66
2023/10/18 04:48:01;;;;;;;2.10;1.55;;;19.30;54.00;;;;;;5041636;28;20032;-65
2023/10/18 04:50:32;;;;;;;2.25;1.50;;;19.30;54.00;;;;;;5037502;28;20036;-66
2023/10/18 04:52:59;;;;;;;2.40;1.42;;;19.30;54.00;;;;;;5043129;28;20090;-65
2023/10/18 04:55:27;;;;;;;2.40;1.30;;;19.30;54.00;;;;;;5039934;28;20037;-65
2023/10/18 04:57:53;;;;;;;2.78;1.50;;;19.30;54.10;;;;;;5039679;28;20114;-65
2023/10/18 05:00:27;;;;;;;2.13;1.40;;;19.20;54.10;;;;;;5037059;28;20449;-65
2023/10/18 05:02:59;;;;;;;2.67;1.40;;;19.20;54.10;;;;;;5040379;28;20029;-65
2023/10/18 05:05:28;;;;;;;2.13;1.33;;;19.20;54.10;;;;;;5041969;28;20049;-65
2023/10/18 05:07:54;;;;;;;2.55;1.60;;;19.20;54.10;;;;;;5040007;28;20342;-65
2023/10/18 05:10:21;;;;;;;2.63;1.50;;;19.20;54.10;;;;;;5039042;28;20489;-64
2023/10/18 05:13:01;;;;;;;2.10;1.30;;;19.20;54.10;;;;;;5040621;28;20052;-64
2023/10/18 05:15:30;;;;;;;;;;;19.20;54.10;;;;;;5038021;28;20031;-65
2023/10/18 05:18:06;;;;;;;2.17;1.40;;;19.30;54.20;;;;;;5043519;28;19926;-66
2023/10/18 05:23:19;;;;;;;2.42;1.40;;;19.30;54.20;;;;;;5042334;28;20025;-66
2023/10/18 05:25:45;;;;;;;2.90;1.50;;;19.30;54.20;;;;;;5039244;28;20530;-66
2023/10/18 05:28:15;;;;;;;2.92;1.70;;;19.30;54.20;;;;;;5039997;28;20106;-67
2023/10/18 05:36:16;;;;;;;2.70;1.50;;;19.20;54.20;;;;;;5040701;28;20033;-66
2023/10/18 05:44:01;;;;;;;2.38;1.50;;;19.20;54.30;;;;;;5040828;28;20029;-64
2023/10/18 05:46:34;;;;;;;2.35;1.38;;;19.20;54.30;;;;;;5039898;28;20029;-65
2023/10/18 05:49:01;;;;;;;2.58;1.40;;;19.20;54.30;;;;;;5039182;28;20021;-65
2023/10/18 05:51:32;;;;;;;2.50;1.40;;;19.20;54.40;;;;;;5040236;28;20489;-65
2023/10/18 05:54:03;;;;;;;2.33;1.60;;;19.20;54.40;;;;;;5037922;28;20507;-65
2023/10/18 05:56:31;;;;;;;2.90;1.50;;;19.20;54.40;;;;;;5037697;28;20025;-65
2023/10/18 06:01:58;;;;;;;2.80;1.52;;;19.20;54.40;;;;;;5039839;28;20029;-65
2023/10/18 06:04:24;;;;;;;3.55;1.60;;;19.20;54.40;;;;;;5039442;28;20495;-65
2023/10/18 06:06:51;;;;;;;3.08;1.60;;;19.20;54.40;;;;;;5037869;28;20037;-65
2023/10/18 06:09:26;;;;;;;3.22;1.60;;;19.20;54.50;;;;;;5039288;28;20492;-65
2023/10/18 06:11:54;;;;;;;3.03;1.40;;;19.20;54.50;;;;;;5038398;28;20136;-65
2023/10/18 06:14:20;;;;;;;3.92;1.65;;;19.20;54.50;;;;;;5038325;28;20086;-65
2023/10/18 06:16:51;;;;;;;3.20;1.70;;;19.20;54.50;;;;;;5037992;28;20037;-65
2023/10/18 06:19:22;;;;;;;2.58;1.60;;;19.20;54.50;;;;;;5039985;28;20108;-65
2023/10/18 06:22:08;;;;;;;3.15;1.50;;;19.20;54.50;;;;;;5040242;28;20109;-65
2023/10/18 06:24:33;;;;;;;2.72;1.58;;;19.20;54.50;;;;;;5039082;28;20459;-64
2023/10/18 06:26:59;;;;;;;3.33;1.88;;;19.20;54.50;;;;;;5037808;28;20112;-65
2023/10/18 06:29:25;;;;;;;2.70;1.50;;;19.20;54.50;;;;;;5037681;28;20024;-64
2023/10/18 06:31:50;;;;;;;3.25;1.60;;;19.20;54.50;;;;;;5037625;28;20472;-63
2023/10/18 06:34:22;;;;;;;3.22;1.70;;;19.20;54.50;;;;;;5038129;28;20021;-63
2023/10/18 06:36:49;;;;;;;2.65;1.55;;;19.20;54.60;;;;;;5040225;28;20374;-65
2023/10/18 06:39:34;;;;;;;2.50;1.45;;;19.20;54.60;;;;;;5038252;28;20794;-63
2023/10/18 06:42:06;;;;;;;2.63;1.60;;;19.20;54.60;;;;;;5038573;28;20113;-62
2023/10/18 06:44:33;;;;;;;2.67;1.60;;;19.20;54.60;;;;;;5036037;28;20021;-62
2023/10/18 06:47:01;;;;;;;3.00;1.60;;;19.20;54.60;;;;;;5039655;28;20029;-63
2023/10/18 06:49:27;;;;;;;2.78;1.85;;;19.20;54.60;;;;;;5037945;28;20446;-65
2023/10/18 06:51:53;;;;;;;3.65;1.90;;;19.20;54.60;;;;;;5038441;28;20051;-65
2023/10/18 06:54:31;;;;;;;4.65;1.80;;;19.20;54.60;;;;;;5037514;28;20037;-65
2023/10/18 06:56:57;;;;;;;2.90;1.65;;;19.20;54.60;;;;;;5039421;28;20048;-65
2023/10/18 06:59:28;;;;;;;3.10;1.80;;;19.20;54.60;;;;;;5037187;28;20028;-65
2023/10/18 07:01:54;;;;;;;3.50;1.80;;;19.20;54.60;;;;;;5037796;28;20057;-65
2023/10/18 07:04:27;;;;;;;3.08;1.70;;;19.10;54.60;;;;;;5038285;28;20495;-64
2023/10/18 07:06:57;;;;;;;3.33;1.75;;;19.20;54.70;;;;;;5038981;28;20408;-65
2023/10/18 07:09:25;;;;;;;2.60;1.65;;;19.20;54.70;;;;;;5039988;28;20056;-65
2023/10/18 07:11:57;;;;;;;3.57;1.80;;;19.20;54.70;;;;;;5036965;28;20481;-65
2023/10/18 07:14:24;;;;;;;2.88;1.95;;;19.10;54.70;;;;;;5036818;28;20121;-65
2023/10/18 07:16:54;;;;;;;3.67;1.67;;;19.10;54.70;;;;;;5038292;28;20587;-65
2023/10/18 07:19:27;;;;;;;3.08;1.88;;;19.10;54.60;;;;;;5037011;28;20025;-65
2023/10/18 07:22:06;;;;;;;3.80;1.90;;;19.20;54.70;;;;;;5036427;28;20092;-65
2023/10/18 07:24:34;;;;;;;3.03;1.70;;;19.20;54.70;;;;;;5038496;28;20027;-64
2023/10/18 07:27:09;;;;;;;2.97;1.80;;;19.20;54.70;;;;;;5038098;28;20029;-64
2023/10/18 07:29:37;;;;;;;2.78;1.80;;;19.20;54.70;;;;;;5052367;28;20033;-63
2023/10/18 07:32:06;;;;;;;3.33;1.65;;;19.20;54.70;;;;;;5036807;28;20473;-63
2023/10/18 07:34:36;;;;;;;2.97;1.75;;;19.20;54.70;;;;;;5037595;28;20021;-61
2023/10/18 07:37:17;;;;;;;2.90;1.60;;;19.20;54.70;;;;;;5037642;28;20101;-62
2023/10/18 07:39:49;;;;;;;4.18;1.80;;;19.20;54.70;;;;;;5037107;28;20021;-66
2023/10/18 07:42:19;;;;;;;3.38;1.80;;;19.10;54.70;;;;;;5037510;28;20492;-67
2023/10/18 07:44:53;;;;;;;2.35;1.50;;;19.20;54.70;;;;;;5034370;28;20056;-66
2023/10/18 07:47:19;;;;;;;3.67;1.90;;;19.10;54.70;;;;;;5038990;28;20828;-67
2023/10/18 07:49:45;;;;;;;3.38;1.77;;;19.20;54.70;;;;;;5038527;28;20111;-66
2023/10/18 07:52:12;;;;;;;3.40;1.60;;;19.20;54.70;;;;;;5038432;28;20116;-66
2023/10/18 07:54:37;;;;;;;3.00;1.83;;;19.10;54.70;;;;;;5037792;28;20044;-67
2023/10/18 07:57:03;;;;;;;4.05;1.90;;;19.10;54.70;;;;;;5037796;28;20040;-67
2023/10/18 07:59:30;;;;;;;3.65;1.70;;;19.10;54.70;;;;;;5039236;28;20436;-64
2023/10/18 08:04:32;;;;;;;2.45;1.40;;;19.10;54.70;;;;;;5037742;28;20021;-65
2023/10/18 08:06:57;;;;;;;2.67;1.60;;;19.10;54.70;;;;;;5041456;28;20480;-64
2023/10/18 08:09:28;;;;;;;2.67;1.45;;;19.10;54.80;;;;;;5041149;28;20045;-64
2023/10/18 08:12:05;;;;;;;3.13;1.80;;;19.10;54.70;;;;;;5039655;28;20061;-64
2023/10/18 08:14:32;;;;;;;3.45;1.50;;;19.10;54.70;;;;;;5041104;28;20025;-65
2023/10/18 08:16:58;;;;;;;2.45;1.60;;;19.10;54.80;;;;;;5038880;28;20021;-64
2023/10/18 08:19:24;;;;;;;2.70;1.60;;;19.10;54.80;;;;;;5040474;28;20386;-64
2023/10/18 08:22:26;;;;;;;2.63;1.60;;;19.10;54.80;;;;;;5038782;28;20052;-64
2023/10/18 08:24:49;;;;;;;2.53;1.63;;;19.10;54.80;;;;;;5041937;28;20037;-65
2023/10/18 08:27:16;;;;;;;2.67;1.50;;;19.10;54.80;;;;;;5041913;28;20496;-65
2023/10/18 08:29:42;;;;;;;2.90;1.88;;;19.10;54.80;;;;;;5040020;28;20114;-64
2023/10/18 08:32:17;;;;;;;2.83;1.55;;;19.10;54.80;;;;;;5040803;28;20056;-64
2023/10/18 08:34:44;;;;;;;2.63;1.42;;;19.10;54.80;;;;;;5040418;28;20022;-65
2023/10/18 08:37:16;;;;;;;2.42;1.65;;;19.10;54.90;;;;;;5040343;28;20033;-64
2023/10/18 08:39:55;;;;;;;3.03;1.65;;;19.00;54.80;;;;;;5040613;28;20100;-67
2023/10/18 08:42:32;;;;;;;2.40;1.40;;;19.10;54.80;;;;;;5040842;28;20032;-67
2023/10/18 08:45:03;;;;;;;3.47;1.65;;;19.10;54.90;;;;;;5038302;28;20477;-66
2023/10/18 08:47:34;;;;;;;2.22;1.50;;;19.00;54.80;;;;;;5040668;28;20059;-67
2023/10/18 08:50:00;;;;;;;3.65;1.63;;;19.00;54.80;;;;;;5040351;28;20022;-67
2023/10/18 08:52:32;;;;;;;2.50;1.42;;;19.00;54.80;;;;;;5040413;28;20037;-67
2023/10/18 08:57:44;;;;;;;2.70;1.48;;;19.00;54.80;;;;;;5040331;28;20101;-67
2023/10/18 09:01:02;;;;;;;2.42;1.42;;;19.00;54.80;;;;;;5037815;28;20392;-67
2023/10/18 09:03:07;;;;;;;2.70;1.65;;;19.00;54.80;;;;;;5040373;28;20055;-67
2023/10/18 09:05:35;;;;;;;1.95;1.30;;;19.00;54.80;;;;;;5037258;28;20082;-67
2023/10/18 09:08:05;;;;;;;3.13;1.63;;;19.00;54.80;;;;;;5042060;28;20052;-67
2023/10/18 09:15:54;;;;;;;2.75;1.50;;;19.00;54.80;;;;;;5037281;28;20033;-64
2023/10/18 09:18:30;;;;;;;2.40;1.25;;;19.00;54.90;;;;;;5037944;28;20512;-64
2023/10/18 09:21:03;;;;;;;2.63;1.55;;;19.00;54.90;;;;;;5040502;28;20140;-64
2023/10/18 09:23:30;;;;;;;2.80;1.70;;;19.00;54.90;;;;;;5040077;28;20024;-64
2023/10/18 09:26:08;;;;;;;2.50;1.60;;;19.00;54.80;;;;;;5041633;28;20021;-64
2023/10/18 09:28:33;;;;;;;2.63;1.40;;;19.00;54.90;;;;;;5037564;28;20033;-64
2023/10/18 09:31:12;;;;;;;2.33;1.30;;;19.00;54.90;;;;;;5037365;28;20457;-64
2023/10/18 09:33:49;;;;;;;2.72;1.70;;;18.90;54.80;;;;;;5041073;28;20060;-65
2023/10/18 09:36:20;;;;;;;2.60;1.50;;;19.00;54.90;;;;;;5039938;28;20029;-65
2023/10/18 09:38:50;;;;;;;2.63;1.50;;;18.90;54.90;;;;;;5041203;28;20449;-64
2023/10/18 09:41:16;;;;;;;1.70;1.30;;;19.00;54.90;;;;;;5038908;28;20060;-64
2023/10/18 09:43:44;;;;;;;2.33;1.40;;;19.00;54.90;;;;;;5038845;28;20392;-65
2023/10/18 09:46:10;;;;;;;3.20;1.63;;;19.00;54.90;;;;;;5038560;28;20389;-65
2023/10/18 09:48:41;;;;;;;3.03;1.42;;;19.00;54.90;;;;;;5039446;28;20103;-64
2023/10/18 09:51:09;;;;;;;2.78;1.58;;;19.00;54.90;;;;;;5039920;28;20041;-64
2023/10/18 09:53:38;;;;;;;2.40;1.50;;;19.00;54.90;;;;;;5038384;28;20041;-64
2023/10/18 09:56:04;;;;;;;2.53;1.60;;;19.00;54.90;;;;;;5040820;28;21004;-65
2023/10/18 09:58:33;;;;;;;2.85;1.70;;;19.00;54.90;;;;;;5040116;28;20053;-64
2023/10/18 10:01:13;;;;;;;2.53;1.42;;;18.90;54.90;;;;;;5039673;28;20021;-67
2023/10/18 10:03:50;;;;;;;2.20;1.38;;;18.90;55.00;;;;;;5037986;28;20039;-67
2023/10/18 10:06:18;;;;;;;2.55;1.52;;;18.90;54.90;;;;;;5040720;28;20032;-67
2023/10/18 10:08:47;;;;;;;2.03;1.42;;;18.90;54.90;;;;;;5037786;28;20562;-67
2023/10/18 10:11:18;;;;;;;2.83;1.77;;;18.90;54.90;;;;;;5038941;28;20025;-67
2023/10/18 10:13:49;;;;;;;2.80;1.60;;;18.90;54.90;;;;;;5038413;28;20516;-66
2023/10/18 10:16:17;;;;;;;2.78;1.52;;;18.90;54.90;;;;;;5037636;28;20017;-67
2023/10/18 10:18:49;;;;;;;2.58;1.50;;;18.90;54.90;;;;;;5040470;28;20662;-67
2023/10/18 10:21:21;;;;;;;3.20;1.90;;;18.90;54.90;;;;;;5039458;28;20032;-69
2023/10/18 10:23:51;;;;;;;2.60;1.48;;;18.90;54.80;;;;;;5041276;28;20366;-69
2023/10/18 10:26:22;;;;;;;2.33;1.58;;;18.90;54.80;;;;;;5038079;28;20075;-69
2023/10/18 10:31:56;;;;;;;2.67;1.60;;;18.90;54.80;;;;;;5038178;28;20378;-69
2023/10/18 10:34:32;;;;;;;3.03;1.45;;;18.90;54.90;;;;;;5037979;28;20037;-69
2023/10/18 10:37:12;;;;;;;2.33;1.52;;;18.90;54.80;;;;;;5038022;28;20357;-69
2023/10/18 10:39:45;;;;;;;2.60;1.65;;;18.90;54.90;;;;;;5038316;28;20032;-69
2023/10/18 10:42:46;;;;;;;2.28;1.50;;;18.90;54.80;;;;;;5040851;28;20110;-69
2023/10/18 10:45:30;;;;;;;2.80;1.60;;;18.90;54.90;;;;;;5039080;28;20099;-68
2023/10/18 10:48:17;;;;;;;2.65;1.70;;;18.90;54.90;;;;;;5036169;28;20025;-68
2023/10/18 10:50:53;;;;;;;2.90;1.70;;;18.90;54.80;;;;;;5038680;28;20021;-69
2023/10/18 10:53:33;;;;;;;2.35;1.58;;;18.90;54.80;;;;;;5039298;28;20055;-69
2023/10/18 10:56:39;;;;;;;2.28;1.40;;;18.90;54.80;;;;;;5036537;28;20095;-69
2023/10/18 11:07:21;;;;;;;2.35;1.60;;;18.90;54.80;;;;;;5037530;28;20051;-63
2023/10/18 11:09:48;;;;;;;1.92;1.25;;;18.90;54.80;;;;;;5038063;28;20469;-67
2023/10/18 11:12:14;;;;;;;2.78;1.50;;;18.90;54.80;;;;;;5038099;28;20075;-68
2023/10/18 11:14:43;;;;;;;2.17;1.45;;;18.90;54.80;;;;;;5038682;28;20048;-66
2023/10/18 11:19:45;;;;;;;2.50;1.50;;;18.90;54.80;;;;;;5038401;28;20026;-67
2023/10/18 11:22:15;;;;;;;2.53;1.50;;;18.90;54.80;;;;;;5038790;28;20025;-67
2023/10/18 11:24:41;;;;;;;2.35;1.50;;;18.90;54.80;;;;;;5038027;28;20562;-67
2023/10/18 11:27:10;;;;;;;1.83;1.30;;;18.90;54.80;;;;;;5037531;28;20038;-67
2023/10/18 11:29:39;;;;;;;2.20;1.40;;;18.90;54.70;;;;;;5038155;28;20171;-70
2023/10/18 11:32:15;;;;;;;2.58;1.70;;;19.00;54.80;;;;;;5037007;28;20391;-69
2023/10/18 11:34:43;;;;;;;2.47;1.50;;;19.00;54.80;;;;;;5038881;28;20021;-68
2023/10/18 11:37:09;;;;;;;2.20;1.30;;;18.90;54.80;;;;;;5039894;28;20028;-69
2023/10/18 11:39:36;;;;;;;2.58;1.40;;;19.00;54.80;;;;;;5039770;28;20119;-70
2023/10/18 11:42:02;;;;;;;2.50;1.42;;;18.90;54.70;;;;;;5041248;28;20026;-67
2023/10/18 11:44:31;;;;;;;1.70;1.20;;;18.90;54.70;;;;;;5043153;28;20041;-69
2023/10/18 11:47:01;;;;;;;2.40;1.50;;;19.00;54.80;;;;;;5040812;28;20388;-69
2023/10/18 11:49:35;;;;;;;2.53;1.58;;;19.00;54.80;;;;;;5041219;28;20131;-71
2023/10/18 11:52:01;;;;;;;1.95;1.35;;;19.00;54.80;;;;;;5042453;28;20029;-67
2023/10/18 11:54:34;;;;;;;2.53;1.27;;;19.00;54.70;;;;;;5041551;28;20044;-69
2023/10/18 11:57:15;;;;;;;2.25;1.38;;;19.00;54.80;;;;;;5044961;28;20032;-68
2023/10/18 11:59:55;;;;;;;2.63;1.67;;;19.00;54.80;;;;;;5041847;28;20037;-69
2023/10/18 12:02:21;;;;;;;2.33;1.42;;;18.90;54.70;;;;;;5041651;28;20035;-68
2023/10/18 12:04:48;;;;;;;2.28;1.40;;;19.00;54.70;;;;;;5043026;28;20106;-69
2023/10/18 12:07:14;;;;;;;2.72;1.90;;;19.00;54.70;;;;;;5041511;28;20774;-69
2023/10/18 12:09:43;;;;;;;1.92;1.30;;;19.00;54.70;;;;;;5041122;28;20083;-67
2023/10/18 12:12:24;;;;;;;1.75;1.30;;;19.00;54.80;;;;;;5042721;28;20021;-67
2023/10/18 12:14:50;;;;;;;1.75;1.20;;;18.90;54.70;;;;;;5043095;28;20480;-67
2023/10/18 12:17:16;;;;;;;2.72;1.30;;;19.00;54.80;;;;;;5040587;28;20091;-68
2023/10/18 12:19:42;;;;;;;2.17;1.30;;;19.00;54.80;;;;;;5041417;28;20029;-65
2023/10/18 12:22:13;;;;;;;2.08;1.42;;;19.00;54.70;;;;;;5042115;28;20024;-64
2023/10/18 12:24:41;;;;;;;2.55;1.52;;;19.00;54.80;;;;;;5040502;28;20025;-64
2023/10/18 12:33:06;;;;;;;1.88;1.40;;;19.00;54.80;;;;;;5039599;28;20404;-64
2023/10/18 12:35:32;;;;;;;1.88;1.27;;;19.00;54.70;;;;;;5038673;28;20503;-65
2023/10/18 12:37:58;;;;;;;2.40;1.45;;;19.00;54.70;;;;;;5041277;28;20104;-65
2023/10/18 12:40:51;;;;;;;2.20;1.30;;;19.00;54.70;;;;;;5041233;28;20732;-67
2023/10/18 12:43:17;;;;;;;2.50;1.50;;;19.00;54.70;;;;;;5039127;28;20074;-66
2023/10/18 12:45:47;;;;;;;1.92;1.25;;;19.00;54.80;;;;;;5040310;28;20032;-68
2023/10/18 12:48:14;;;;;;;;;;;19.00;54.70;;;;;;5038156;28;20033;-67
2023/10/18 12:50:46;;;;;;;1.92;1.40;;;19.00;54.70;;;;;;5040809;28;19913;-66
2023/10/18 12:55:53;;;;;;;2.50;1.70;;;19.00;54.70;;;;;;5040440;28;20044;-67
2023/10/18 12:58:19;;;;;;;2.05;1.23;;;19.00;54.70;;;;;;5040336;28;20035;-66
2023/10/18 13:00:53;;;;;;;2.03;1.33;;;19.00;54.80;;;;;;5040112;28;20036;-67
2023/10/18 13:03:24;;;;;;;2.03;1.30;;;19.00;54.80;;;;;;5040300;28;20037;-67
2023/10/18 13:05:52;;;;;;;2.05;1.17;;;19.00;54.80;;;;;;5039687;28;20503;-67
2023/10/18 13:08:27;;;;;;;2.20;1.23;;;19.00;54.80;;;;;;5038901;28;20031;-67
2023/10/18 13:11:34;;;;;;;2.15;1.40;;;19.00;54.80;;;;;;5040308;28;20107;-67
2023/10/18 13:13:46;;;;;;;2.05;1.40;;;19.00;55.30;;;;;;5038774;28;20111;-67
2023/10/18 13:16:15;;;;;;;1.65;1.20;;;19.00;54.80;;;;;;5038962;28;20033;-67
2023/10/18 13:18:41;;;;;;;1.85;1.30;;;19.00;54.80;;;;;;5038353;28;20448;-66
2023/10/18 13:21:20;;;;;;;2.15;1.20;;;19.00;54.70;;;;;;5043435;28;20029;-64
2023/10/18 13:23:46;;;;;;;2.00;1.30;;;19.00;54.70;;;;;;5039092;28;20350;-64
2023/10/18 13:26:15;;;;;;;1.75;1.13;;;19.00;54.70;;;;;;5042237;28;20036;-63
2023/10/18 13:28:51;;;;;;;1.75;1.20;;;19.00;54.70;;;;;;5042290;28;20388;-64
2023/10/18 13:31:22;;;;;;;1.67;1.20;;;19.00;54.70;;;;;;5040803;28;20050;-66
2023/10/18 13:33:52;;;;;;;2.55;1.45;;;19.10;54.80;;;;;;5038714;28;20025;-67
2023/10/18 13:36:21;;;;;;;;;;;19.00;54.70;;;;;;5038825;28;20545;-66
2023/10/18 13:38:49;;;;;;;1.83;1.27;;;19.00;54.70;;;;;;5042182;28;19963;-67
2023/10/18 13:41:15;;;;;;;2.05;1.25;;;19.10;54.70;;;;;;5039623;28;20030;-66
2023/10/18 13:43:41;;;;;;;1.92;1.30;;;19.00;55.20;;;;;;5040880;28;20034;-69
2023/10/18 13:46:08;;;;;;;1.80;1.30;;;19.00;54.70;;;;;;5040509;28;20116;-67
2023/10/18 13:48:34;;;;;;;1.60;1.20;;;19.00;54.70;;;;;;5037897;28;20544;-67
2023/10/18 13:51:02;;;;;;;2.15;1.23;;;19.10;54.80;;;;;;5039273;28;20140;-64
2023/10/18 13:53:28;;;;;;;1.80;1.20;;;19.00;54.70;;;;;;5041078;28;20048;-64
2023/10/18 13:56:00;;;;;;;1.92;1.20;;;19.10;54.70;;;;;;5039211;28;20033;-64
2023/10/18 13:58:29;;;;;;;1.73;1.30;;;19.10;54.70;;;;;;5039871;28;20021;-64